Time;durP1;ratioP1;P1;durP2;ratioP2;P2;SDS_P1;SDS_P2;PMS_P1;PMS_P2;Temp;Humidity;BMP_temperature;BMP_pressure;BME280_temperature;BME280_humidity;BME280_pressure;Samples;Min_cycle;Max_cycle;Signal;HPM_P1;HPM_P2
2022/01/05 00:00:50;;;;;;;2.67;0.77;;;4.50;93.60;;;;;;2085836;28;20509;-91
2022/01/05 00:01:51;;;;;;;2.45;0.60;;;4.40;93.60;;;;;;2077513;28;20037;-90
2022/01/05 00:02:52;;;;;;;3.83;0.60;;;4.40;93.60;;;;;;2062852;28;20125;-90
2022/01/05 00:03:52;;;;;;;3.25;0.80;;;4.40;93.60;;;;;;2078466;28;20462;-91
2022/01/05 00:04:53;;;;;;;3.55;0.70;;;4.40;93.60;;;;;;2092225;28;20043;-91
2022/01/05 00:05:53;;;;;;;2.70;0.75;;;4.40;93.60;;;;;;2084815;28;20068;-90
2022/01/05 00:06:54;;;;;;;3.30;0.60;;;4.40;93.60;;;;;;2094714;28;20041;-90
2022/01/05 00:07:55;;;;;;;3.55;0.68;;;4.40;93.60;;;;;;2086217;28;20045;-91
2022/01/05 00:08:55;;;;;;;2.70;0.80;;;4.40;93.60;;;;;;2076259;28;20034;-91
2022/01/05 00:09:56;;;;;;;3.08;0.50;;;4.40;93.60;;;;;;2079548;28;20045;-90
2022/01/05 00:10:58;;;;;;;2.20;0.68;;;4.30;93.60;;;;;;2078951;28;20034;-91
2022/01/05 00:11:59;;;;;;;4.22;0.77;;;4.30;93.60;;;;;;2087489;28;20037;-90
2022/01/05 00:12:59;;;;;;;1.60;0.57;;;4.30;93.60;;;;;;2095590;28;20029;-91
2022/01/05 00:14:00;;;;;;;3.08;1.05;;;4.30;93.60;;;;;;2094416;28;20043;-90
2022/01/05 00:15:01;;;;;;;2.47;0.60;;;4.30;93.60;;;;;;2093097;28;20487;-90
2022/01/05 00:16:01;;;;;;;3.22;0.70;;;4.30;93.60;;;;;;2090509;28;20044;-90
2022/01/05 00:17:02;;;;;;;3.10;0.98;;;4.20;93.60;;;;;;2091385;28;20486;-90
2022/01/05 00:18:03;;;;;;;4.38;0.80;;;4.20;93.60;;;;;;2084939;28;20037;-89
2022/01/05 00:19:04;;;;;;;2.60;0.50;;;4.30;93.60;;;;;;2077277;28;20033;-90
2022/01/05 00:20:05;;;;;;;2.88;0.60;;;4.20;93.60;;;;;;2095579;28;20082;-90
2022/01/05 00:21:06;;;;;;;2.50;0.70;;;4.20;93.60;;;;;;2087311;28;20487;-91
2022/01/05 00:22:07;;;;;;;2.67;0.55;;;4.20;93.60;;;;;;2082720;28;20029;-91
2022/01/05 00:23:08;;;;;;;2.42;0.70;;;4.20;93.60;;;;;;2084499;28;20059;-91
2022/01/05 00:24:09;;;;;;;2.78;0.70;;;4.20;93.60;;;;;;2067109;28;21779;-91
2022/01/05 00:25:10;;;;;;;3.83;0.70;;;4.20;93.70;;;;;;2075302;28;20534;-90
2022/01/05 00:26:10;;;;;;;2.85;0.70;;;4.20;93.60;;;;;;2092413;28;20044;-91
2022/01/05 00:27:11;;;;;;;3.85;0.73;;;4.20;93.60;;;;;;2089345;28;20041;-91
2022/01/05 00:28:11;;;;;;;2.17;0.60;;;4.10;93.60;;;;;;2094655;28;20040;-91
2022/01/05 00:29:12;;;;;;;3.65;0.85;;;4.20;93.60;;;;;;2092635;28;20033;-91
2022/01/05 00:30:13;;;;;;;2.78;0.70;;;4.10;93.60;;;;;;2099152;28;20095;-90
2022/01/05 00:31:14;;;;;;;4.63;0.80;;;4.10;93.60;;;;;;2097486;28;20540;-91
2022/01/05 00:32:14;;;;;;;2.67;0.70;;;4.10;93.60;;;;;;2092910;28;20036;-91
2022/01/05 00:33:15;;;;;;;4.35;0.68;;;4.10;93.60;;;;;;2092966;28;20033;-91
2022/01/05 00:34:16;;;;;;;3.90;0.90;;;4.10;93.60;;;;;;2090189;28;20124;-91
2022/01/05 00:35:16;;;;;;;2.42;0.70;;;4.10;93.50;;;;;;2084001;28;20088;-91
2022/01/05 00:36:17;;;;;;;2.33;0.60;;;4.10;93.60;;;;;;2091856;28;20051;-91
2022/01/05 00:37:19;;;;;;;1.52;0.40;;;4.10;93.50;;;;;;2094414;28;20116;-90
2022/01/05 00:38:19;;;;;;;4.22;0.80;;;4.10;93.50;;;;;;2093777;28;20040;-91
2022/01/05 00:39:20;;;;;;;3.10;0.60;;;4.10;93.50;;;;;;2091612;28;20523;-91
2022/01/05 00:40:20;;;;;;;2.47;0.60;;;4.10;93.60;;;;;;2094267;28;20049;-91
2022/01/05 00:41:21;;;;;;;4.28;1.13;;;4.10;93.60;;;;;;2099912;28;20043;-89
2022/01/05 00:42:22;;;;;;;2.63;0.73;;;4.10;93.60;;;;;;2092773;28;20136;-89
2022/01/05 00:43:22;;;;;;;2.88;0.70;;;4.00;93.50;;;;;;2092044;28;20119;-89
2022/01/05 00:44:24;;;;;;;1.73;0.65;;;4.00;93.50;;;;;;2101624;28;20036;-87
2022/01/05 00:45:25;;;;;;;2.97;0.73;;;4.00;93.50;;;;;;2102448;28;20017;-90
2022/01/05 00:46:25;;;;;;;4.35;0.50;;;4.00;93.50;;;;;;2086244;28;20072;-90
2022/01/05 00:47:26;;;;;;;4.75;1.10;;;4.00;93.50;;;;;;2079759;28;20048;-90
2022/01/05 00:48:29;;;;;;;2.83;0.80;;;4.00;93.50;;;;;;2079480;28;20049;-90
2022/01/05 00:49:30;;;;;;;3.67;0.80;;;4.00;93.50;;;;;;2083769;28;20486;-90
2022/01/05 00:50:31;;;;;;;4.65;0.80;;;4.00;93.50;;;;;;2083981;28;20072;-91
2022/01/05 00:51:31;;;;;;;3.35;0.70;;;4.00;93.50;;;;;;2090565;28;20037;-91
2022/01/05 00:52:32;;;;;;;4.28;0.65;;;4.00;93.50;;;;;;2090394;28;20064;-91
2022/01/05 00:53:34;;;;;;;1.95;0.43;;;4.00;93.50;;;;;;2099914;28;20071;-91
2022/01/05 00:54:35;;;;;;;2.15;0.60;;;4.00;93.50;;;;;;2091714;28;20533;-91
2022/01/05 00:55:35;;;;;;;5.03;0.95;;;3.90;93.50;;;;;;2093163;28;20139;-91
2022/01/05 00:56:36;;;;;;;3.50;0.80;;;3.90;93.50;;;;;;2093461;28;20036;-91
2022/01/05 00:57:37;;;;;;;4.07;0.63;;;3.90;93.50;;;;;;2089322;28;20032;-91
2022/01/05 00:58:37;;;;;;;2.45;0.80;;;3.90;93.50;;;;;;2075830;28;20049;-90
2022/01/05 00:59:38;;;;;;;3.13;0.73;;;3.90;93.50;;;;;;2099055;28;20036;-90
2022/01/05 01:00:39;;;;;;;3.20;0.65;;;3.90;93.50;;;;;;2100076;28;20039;-92
2022/01/05 01:01:39;;;;;;;3.85;0.95;;;3.90;93.50;;;;;;2079830;28;20538;-91
2022/01/05 01:02:40;;;;;;;2.65;0.57;;;4.00;93.50;;;;;;2085617;28;20046;-91
2022/01/05 01:03:41;;;;;;;3.17;0.65;;;3.90;93.40;;;;;;2091580;28;20053;-91
2022/01/05 01:04:41;;;;;;;2.25;0.38;;;4.00;93.50;;;;;;2092635;28;20070;-90
2022/01/05 01:05:42;;;;;;;2.47;0.60;;;4.00;93.40;;;;;;2091476;28;20139;-90
2022/01/05 01:06:43;;;;;;;3.08;0.60;;;4.00;93.40;;;;;;2091885;28;20065;-90
2022/01/05 01:07:44;;;;;;;3.28;0.63;;;4.00;93.40;;;;;;2093133;28;20049;-90
2022/01/05 01:08:45;;;;;;;3.85;0.80;;;4.00;93.30;;;;;;2070623;28;20058;-91
2022/01/05 01:09:46;;;;;;;4.82;1.13;;;4.00;93.30;;;;;;2071412;28;20041;-90
2022/01/05 01:10:47;;;;;;;3.00;0.60;;;4.00;93.50;;;;;;2080204;28;20362;-91
2022/01/05 01:11:48;;;;;;;2.05;0.70;;;4.00;93.20;;;;;;2082483;28;20029;-91
2022/01/05 01:12:49;;;;;;;5.97;0.80;;;4.00;93.30;;;;;;2091438;28;20086;-91
2022/01/05 01:13:50;;;;;;;4.10;0.93;;;4.00;93.30;;;;;;2076055;28;20129;-91
2022/01/05 01:14:50;;;;;;;2.70;0.55;;;4.00;93.20;;;;;;2087953;28;20045;-90
2022/01/05 01:15:52;;;;;;;6.32;0.90;;;4.00;93.50;;;;;;2083877;28;20100;-91
2022/01/05 01:16:52;;;;;;;4.20;1.00;;;4.00;93.20;;;;;;2078471;28;20466;-91
2022/01/05 01:17:53;;;;;;;6.40;0.68;;;4.00;93.20;;;;;;2082834;28;20041;-89
2022/01/05 01:18:53;;;;;;;3.45;0.90;;;4.00;93.30;;;;;;2093152;28;20515;-90
2022/01/05 01:19:54;;;;;;;3.60;0.80;;;3.90;93.20;;;;;;2093317;28;20035;-90
2022/01/05 01:20:55;;;;;;;3.53;0.90;;;3.90;93.30;;;;;;2096635;28;20057;-91
2022/01/05 01:21:57;;;;;;;2.80;0.60;;;3.90;93.20;;;;;;2094050;28;20097;-90
2022/01/05 01:22:58;;;;;;;5.15;0.82;;;3.90;93.30;;;;;;2093039;28;20549;-91
2022/01/05 01:23:59;;;;;;;2.20;0.70;;;3.90;93.30;;;;;;2094071;28;20033;-91
2022/01/05 01:24:59;;;;;;;6.60;0.80;;;3.90;93.30;;;;;;2094185;28;20086;-91
2022/01/05 01:26:00;;;;;;;3.63;0.70;;;3.80;93.30;;;;;;2092595;28;20036;-91
2022/01/05 01:27:01;;;;;;;4.43;0.95;;;3.90;93.30;;;;;;2093697;28;20517;-91
2022/01/05 01:28:02;;;;;;;4.78;1.23;;;3.80;93.30;;;;;;2072720;28;20497;-91
2022/01/05 01:29:03;;;;;;;5.15;1.02;;;3.80;93.30;;;;;;2061126;28;20047;-90
2022/01/05 01:30:04;;;;;;;3.53;0.90;;;3.80;93.30;;;;;;2065209;28;20038;-91
2022/01/05 01:31:05;;;;;;;3.70;0.82;;;3.80;93.30;;;;;;2079178;28;20416;-91
2022/01/05 01:32:06;;;;;;;5.22;1.00;;;3.80;93.30;;;;;;2082182;28;20132;-91
2022/01/05 01:33:07;;;;;;;4.90;0.98;;;3.80;93.30;;;;;;2083401;28;20052;-91
2022/01/05 01:34:07;;;;;;;5.78;0.98;;;3.80;93.30;;;;;;2092377;28;20455;-91
2022/01/05 01:35:09;;;;;;;3.28;0.70;;;3.80;93.30;;;;;;2078258;28;20508;-91
2022/01/05 01:36:09;;;;;;;5.00;1.00;;;3.80;93.30;;;;;;2086686;28;20199;-91
2022/01/05 01:37:10;;;;;;;4.05;0.75;;;3.70;93.30;;;;;;2091905;28;20123;-90
2022/01/05 01:38:11;;;;;;;3.35;0.93;;;3.80;93.30;;;;;;2093018;28;20131;-90
2022/01/05 01:39:11;;;;;;;5.20;0.90;;;3.70;93.30;;;;;;2096263;28;20033;-91
2022/01/05 01:40:12;;;;;;;4.32;0.70;;;3.70;93.30;;;;;;2093395;28;20072;-90
2022/01/05 01:41:13;;;;;;;3.80;0.80;;;3.70;93.30;;;;;;2087304;28;20076;-88
2022/01/05 01:42:15;;;;;;;5.75;1.10;;;3.70;93.30;;;;;;2104147;28;20389;-90
2022/01/05 01:43:15;;;;;;;5.78;1.13;;;3.70;93.30;;;;;;2100252;28;20021;-90
2022/01/05 01:44:17;;;;;;;6.38;1.10;;;3.70;93.20;;;;;;2096291;28;21706;-91
2022/01/05 01:45:18;;;;;;;4.32;1.00;;;3.70;93.20;;;;;;2077113;28;20109;-90
2022/01/05 01:46:19;;;;;;;6.40;1.08;;;3.70;93.20;;;;;;2083539;28;20030;-92
2022/01/05 01:47:20;;;;;;;5.82;1.38;;;3.70;93.10;;;;;;2086581;28;20095;-91
2022/01/05 01:48:21;;;;;;;4.35;1.13;;;3.80;93.10;;;;;;2090946;28;20053;-91
2022/01/05 01:49:21;;;;;;;4.55;0.88;;;3.70;93.00;;;;;;2098679;28;20036;-89
2022/01/05 01:50:22;;;;;;;3.55;0.60;;;3.70;93.00;;;;;;2098281;28;20114;-90
2022/01/05 01:51:23;;;;;;;4.25;0.80;;;3.80;93.10;;;;;;2098361;28;20067;-89
2022/01/05 01:52:24;;;;;;;4.72;0.93;;;3.70;93.00;;;;;;2098616;28;20509;-91
2022/01/05 01:53:24;;;;;;;3.13;0.77;;;3.70;93.00;;;;;;2094216;28;20480;-90
2022/01/05 01:54:26;;;;;;;3.63;0.70;;;3.80;93.00;;;;;;2078709;28;20124;-91
2022/01/05 01:55:27;;;;;;;3.83;0.70;;;3.70;93.00;;;;;;2075069;28;20076;-91
2022/01/05 01:56:33;;;;;;;3.33;0.80;;;3.70;93.00;;;;;;2082807;28;20037;-91
2022/01/05 01:57:36;;;;;;;3.40;0.70;;;3.70;93.00;;;;;;2079118;28;20057;-90
2022/01/05 01:58:37;;;;;;;3.95;0.77;;;3.70;93.00;;;;;;2097057;28;20109;-90
2022/01/05 01:59:38;;;;;;;3.60;0.73;;;3.70;93.00;;;;;;2087022;28;20487;-91
2022/01/05 02:00:39;;;;;;;5.30;0.77;;;3.70;93.00;;;;;;2086070;28;20044;-90
2022/01/05 02:01:40;;;;;;;6.53;0.90;;;3.70;93.00;;;;;;2069835;28;20500;-90
2022/01/05 02:02:44;;;;;;;3.92;0.82;;;3.70;93.00;;;;;;2077485;28;20049;-91
2022/01/05 02:03:44;;;;;;;4.72;0.80;;;3.70;93.00;;;;;;2091763;28;20440;-91
2022/01/05 02:04:45;;;;;;;2.22;0.60;;;3.70;93.00;;;;;;2092092;28;20139;-90
2022/01/05 02:05:46;;;;;;;4.20;0.90;;;3.70;93.00;;;;;;2089850;28;20029;-90
2022/01/05 02:06:47;;;;;;;4.10;0.70;;;3.70;93.00;;;;;;2091235;28;20099;-90
2022/01/05 02:07:47;;;;;;;3.15;0.73;;;3.70;93.00;;;;;;2094256;28;20117;-91
2022/01/05 02:08:49;;;;;;;3.20;0.75;;;3.70;93.00;;;;;;2082634;28;20489;-90
2022/01/05 02:09:49;;;;;;;4.35;0.73;;;3.70;93.00;;;;;;2078973;28;20396;-91
2022/01/05 02:10:51;;;;;;;1.75;0.60;;;3.70;93.00;;;;;;2094958;28;20151;-90
2022/01/05 02:11:52;;;;;;;3.70;0.93;;;3.70;93.00;;;;;;2089875;28;20096;-89
2022/01/05 02:12:52;;;;;;;5.30;1.05;;;3.70;93.00;;;;;;2098440;28;20047;-91
2022/01/05 02:13:53;;;;;;;4.43;0.82;;;3.70;93.00;;;;;;2090456;28;20045;-90
2022/01/05 02:14:54;;;;;;;4.32;0.93;;;3.60;93.00;;;;;;2083867;28;20044;-90
2022/01/05 02:15:55;;;;;;;5.10;0.90;;;3.70;93.00;;;;;;2091864;28;20756;-91
2022/01/05 02:16:57;;;;;;;3.65;1.02;;;3.70;93.00;;;;;;2090266;28;20063;-90
2022/01/05 02:19:02;;;;;;;4.07;1.00;;;3.60;93.00;;;;;;2090912;28;20036;-89
2022/01/05 02:20:12;;;;;;;3.67;0.98;;;3.60;93.00;;;;;;2093923;28;20037;-89
2022/01/05 02:21:14;;;;;;;5.55;1.00;;;3.60;93.00;;;;;;2085481;28;20036;-90
2022/01/05 02:22:14;;;;;;;3.10;0.88;;;3.60;93.20;;;;;;2090107;28;20040;-91
2022/01/05 02:23:15;;;;;;;2.92;0.70;;;3.60;93.00;;;;;;2092570;28;20437;-90
2022/01/05 02:24:16;;;;;;;3.28;0.70;;;3.60;93.00;;;;;;2094227;28;20035;-90
2022/01/05 02:25:17;;;;;;;5.53;0.90;;;3.60;93.10;;;;;;2092821;28;20036;-90
2022/01/05 02:26:17;;;;;;;4.00;0.85;;;3.60;93.00;;;;;;2085630;28;20580;-91
2022/01/05 02:27:18;;;;;;;3.08;0.90;;;3.60;93.00;;;;;;2088309;28;20124;-90
2022/01/05 02:28:19;;;;;;;4.90;0.95;;;3.60;93.00;;;;;;2092130;28;20052;-91
2022/01/05 02:29:21;;;;;;;6.15;1.02;;;3.60;93.00;;;;;;2086245;28;20021;-91
2022/01/05 02:30:25;;;;;;;3.55;1.00;;;3.60;93.00;;;;;;2085805;28;20442;-88
2022/01/05 02:31:26;;;;;;;4.55;0.90;;;3.60;93.00;;;;;;2104378;28;20020;-86
2022/01/05 02:32:26;;;;;;;4.65;1.10;;;3.60;93.00;;;;;;2102874;28;20052;-88
2022/01/05 02:33:27;;;;;;;5.00;1.40;;;3.60;93.00;;;;;;2099231;28;20036;-89
2022/01/05 02:34:27;;;;;;;4.68;0.90;;;3.60;93.00;;;;;;2090059;28;20194;-89
2022/01/05 02:35:28;;;;;;;4.30;0.90;;;3.50;92.90;;;;;;2092566;28;20048;-90
2022/01/05 02:36:29;;;;;;;3.45;0.88;;;3.60;93.00;;;;;;2085514;28;20033;-90
2022/01/05 02:37:30;;;;;;;6.93;1.13;;;3.50;92.90;;;;;;2089077;28;20033;-90
2022/01/05 02:38:30;;;;;;;5.07;1.02;;;3.60;93.00;;;;;;2079487;28;20044;-90
2022/01/05 02:39:31;;;;;;;5.55;1.10;;;3.50;92.90;;;;;;2078240;28;20041;-90
2022/01/05 02:40:32;;;;;;;5.70;1.10;;;3.50;92.90;;;;;;2091095;28;20037;-90
2022/01/05 02:41:32;;;;;;;5.00;1.08;;;3.60;92.90;;;;;;2092004;28;20119;-90
2022/01/05 02:42:33;;;;;;;7.90;1.27;;;3.50;92.90;;;;;;2092924;28;20653;-90
2022/01/05 02:43:35;;;;;;;5.93;1.20;;;3.50;92.80;;;;;;2092972;28;20553;-91
2022/01/05 02:44:44;;;;;;;5.88;0.88;;;3.50;93.10;;;;;;2092144;28;20404;-90
2022/01/05 02:45:44;;;;;;;6.25;1.60;;;3.50;92.80;;;;;;2084154;28;20487;-88
2022/01/05 02:46:45;;;;;;;4.38;1.10;;;3.50;92.80;;;;;;2087473;28;20190;-90
2022/01/05 02:47:46;;;;;;;4.80;1.00;;;3.50;92.80;;;;;;2093066;28;20617;-89
2022/01/05 02:48:50;;;;;;;6.47;1.40;;;3.50;92.80;;;;;;2078436;28;20033;-90
2022/01/05 02:49:56;;;;;;;6.03;1.25;;;3.50;92.70;;;;;;2072135;28;20077;-90
2022/01/05 02:50:57;;;;;;;4.50;1.02;;;3.50;92.70;;;;;;2080100;28;20034;-90
2022/01/05 02:51:58;;;;;;;5.55;1.20;;;3.50;92.70;;;;;;2080418;28;20041;-90
2022/01/05 02:52:58;;;;;;;5.30;1.13;;;3.50;92.70;;;;;;2060842;28;20043;-89
2022/01/05 02:53:59;;;;;;;7.15;1.23;;;3.50;92.60;;;;;;2070725;28;20034;-90
2022/01/05 02:55:02;;;;;;;4.15;1.40;;;3.50;92.60;;;;;;2079201;28;20045;-88
2022/01/05 02:56:03;;;;;;;5.18;1.00;;;3.50;92.60;;;;;;2092699;28;20040;-90
2022/01/05 02:57:04;;;;;;;5.97;1.00;;;3.50;92.60;;;;;;2097316;28;20360;-88
2022/01/05 02:58:05;;;;;;;3.97;1.05;;;3.50;92.60;;;;;;2093589;28;20056;-90
2022/01/05 02:59:06;;;;;;;4.90;1.15;;;3.50;92.60;;;;;;2089043;28;20372;-91
2022/01/05 03:00:09;;;;;;;4.20;0.95;;;3.50;92.60;;;;;;2078850;28;20037;-90
2022/01/05 03:01:10;;;;;;;3.63;1.10;;;3.50;92.60;;;;;;2079626;28;20147;-90
2022/01/05 03:02:11;;;;;;;5.55;0.95;;;3.50;92.50;;;;;;2093421;28;20096;-91
2022/01/05 03:03:11;;;;;;;3.22;0.88;;;3.50;92.50;;;;;;2101113;28;20036;-91
2022/01/05 03:04:12;;;;;;;6.20;1.42;;;3.50;92.50;;;;;;2092715;28;20033;-90
2022/01/05 03:05:13;;;;;;;6.80;1.20;;;3.50;92.70;;;;;;2075376;28;20066;-90
2022/01/05 03:06:13;;;;;;;6.97;1.20;;;3.50;92.70;;;;;;2075061;28;20052;-90
2022/01/05 03:07:16;;;;;;;3.72;0.93;;;3.50;92.40;;;;;;2077626;28;20093;-89
2022/01/05 03:08:17;;;;;;;4.00;0.95;;;3.50;92.40;;;;;;2094158;28;20064;-90
2022/01/05 03:09:18;;;;;;;3.88;1.00;;;3.50;92.40;;;;;;2101289;28;20506;-90
2022/01/05 03:10:18;;;;;;;7.22;1.00;;;3.50;92.40;;;;;;2092581;28;20083;-90
2022/01/05 03:11:19;;;;;;;5.18;1.00;;;3.50;92.40;;;;;;2086960;28;20071;-91
2022/01/05 03:12:20;;;;;;;6.28;1.23;;;3.50;92.40;;;;;;2092230;28;20033;-89
2022/01/05 03:13:23;;;;;;;3.97;1.05;;;3.50;92.70;;;;;;2101729;28;20044;-90
2022/01/05 03:14:23;;;;;;;4.13;1.00;;;3.50;92.40;;;;;;2093028;28;20032;-90
2022/01/05 03:15:24;;;;;;;4.13;0.95;;;3.40;92.40;;;;;;2086446;28;20141;-90
2022/01/05 03:16:25;;;;;;;5.32;1.05;;;3.40;92.40;;;;;;2071601;28;20042;-90
2022/01/05 03:17:25;;;;;;;2.63;0.80;;;3.40;92.60;;;;;;2087552;28;20049;-90
2022/01/05 03:18:26;;;;;;;4.35;0.88;;;3.40;92.40;;;;;;2099961;28;20048;-90
2022/01/05 03:19:27;;;;;;;5.25;1.00;;;3.40;92.40;;;;;;2093770;28;20095;-91
2022/01/05 03:20:29;;;;;;;2.92;0.90;;;3.40;92.40;;;;;;2088794;28;20156;-90
2022/01/05 03:21:30;;;;;;;5.95;1.27;;;3.40;92.40;;;;;;2078993;28;20037;-91
2022/01/05 03:22:30;;;;;;;3.90;1.10;;;3.40;92.40;;;;;;2078560;28;20586;-90
2022/01/05 03:23:31;;;;;;;7.60;1.20;;;3.40;92.40;;;;;;2095153;28;20044;-90
2022/01/05 03:24:32;;;;;;;2.80;0.77;;;3.40;92.40;;;;;;2092403;28;20037;-90
2022/01/05 03:25:32;;;;;;;5.25;0.90;;;3.40;92.40;;;;;;2092388;28;20048;-91
2022/01/05 03:26:33;;;;;;;5.47;0.90;;;3.40;92.40;;;;;;2101314;28;20107;-91
2022/01/05 03:27:34;;;;;;;3.65;0.85;;;3.40;92.40;;;;;;2102038;28;20047;-90
2022/01/05 03:28:35;;;;;;;3.17;0.80;;;3.40;92.40;;;;;;2087474;28;20041;-91
2022/01/05 03:29:35;;;;;;;7.18;1.00;;;3.40;92.40;;;;;;2066982;28;20041;-90
2022/01/05 03:30:36;;;;;;;4.47;1.20;;;3.40;92.40;;;;;;2072694;28;20305;-91
2022/01/05 03:31:37;;;;;;;5.20;1.10;;;3.40;92.40;;;;;;2061702;28;20521;-90
2022/01/05 03:32:50;;;;;;;3.78;0.80;;;3.40;92.40;;;;;;2078976;28;20108;-90
2022/01/05 03:33:51;;;;;;;3.65;0.80;;;3.40;92.40;;;;;;2094184;28;20032;-90
2022/01/05 03:34:52;;;;;;;4.95;0.98;;;3.30;92.30;;;;;;2089414;28;20127;-91
2022/01/05 03:35:52;;;;;;;5.15;1.08;;;3.40;92.40;;;;;;2088332;28;20164;-91
2022/01/05 03:36:55;;;;;;;7.45;1.08;;;3.30;92.30;;;;;;2086198;28;20068;-91
2022/01/05 03:37:57;;;;;;;6.45;1.08;;;3.30;92.30;;;;;;2093600;28;20041;-91
2022/01/05 03:38:58;;;;;;;4.72;1.10;;;3.30;92.30;;;;;;2101800;28;20598;-90
2022/01/05 03:39:58;;;;;;;2.53;0.90;;;3.30;92.20;;;;;;2087862;28;20037;-91
2022/01/05 03:40:59;;;;;;;4.25;0.98;;;3.30;92.30;;;;;;2078060;28;20049;-90
2022/01/05 03:42:00;;;;;;;5.40;1.00;;;3.40;92.30;;;;;;2093793;28;20084;-91
2022/01/05 03:43:01;;;;;;;4.15;0.95;;;3.30;92.30;;;;;;2079712;28;20040;-90
2022/01/05 03:44:03;;;;;;;5.45;0.90;;;3.30;92.30;;;;;;2080810;28;20120;-91
2022/01/05 03:45:05;;;;;;;5.30;1.33;;;3.30;92.20;;;;;;2102554;28;20118;-91
2022/01/05 03:46:05;;;;;;;5.15;0.80;;;3.30;92.20;;;;;;2087911;28;20041;-91
2022/01/05 03:47:06;;;;;;;7.80;1.25;;;3.30;92.30;;;;;;2082341;28;20034;-90
2022/01/05 03:48:09;;;;;;;6.22;0.98;;;3.30;92.20;;;;;;2093010;28;20064;-91
2022/01/05 03:49:10;;;;;;;6.40;1.35;;;3.30;92.20;;;;;;2090992;28;20128;-90
2022/01/05 03:50:11;;;;;;;8.73;1.52;;;3.30;92.20;;;;;;2083662;28;20064;-91
2022/01/05 03:51:11;;;;;;;3.70;1.10;;;3.30;92.20;;;;;;2086168;28;20490;-92
2022/01/05 03:52:12;;;;;;;4.38;1.00;;;3.30;92.20;;;;;;2092868;28;20063;-92
2022/01/05 03:53:13;;;;;;;3.55;1.05;;;3.30;92.20;;;;;;2093319;28;20514;-91
2022/01/05 03:54:14;;;;;;;4.60;1.10;;;3.30;92.20;;;;;;2103416;28;20131;-91
2022/01/05 03:55:14;;;;;;;3.50;1.10;;;3.30;92.10;;;;;;2091874;28;20040;-91
2022/01/05 03:56:15;;;;;;;5.75;1.10;;;3.30;92.20;;;;;;2083858;28;20041;-91
2022/01/05 03:57:15;;;;;;;8.85;1.15;;;3.30;92.20;;;;;;2076645;28;20041;-90
2022/01/05 03:58:16;;;;;;;5.57;1.10;;;3.30;92.30;;;;;;2071021;28;20495;-90
2022/01/05 03:59:17;;;;;;;3.97;0.95;;;3.30;92.50;;;;;;2078914;28;20061;-90
2022/01/05 04:00:18;;;;;;;5.78;1.20;;;3.30;92.20;;;;;;2079294;28;20041;-90
2022/01/05 04:01:19;;;;;;;5.40;1.20;;;3.30;92.20;;;;;;2079260;28;20021;-90
2022/01/05 04:02:20;;;;;;;6.53;1.10;;;3.30;92.20;;;;;;2089703;28;20464;-91
2022/01/05 04:03:21;;;;;;;5.65;1.23;;;3.30;92.30;;;;;;2080301;28;20128;-90
2022/01/05 04:04:21;;;;;;;4.78;1.10;;;3.30;92.30;;;;;;2080481;28;20380;-90
2022/01/05 04:05:22;;;;;;;4.70;1.00;;;3.30;92.30;;;;;;2071857;28;20034;-90
2022/01/05 04:06:24;;;;;;;4.93;1.13;;;3.20;92.30;;;;;;2084414;28;20180;-91
2022/01/05 04:07:25;;;;;;;6.88;1.10;;;3.20;92.30;;;;;;2097725;28;20032;-91
2022/01/05 04:08:25;;;;;;;5.30;1.02;;;3.20;92.30;;;;;;2076738;28;20085;-90
2022/01/05 04:09:26;;;;;;;4.70;1.15;;;3.30;92.30;;;;;;2092594;28;20021;-86
2022/01/05 04:10:27;;;;;;;8.80;1.33;;;3.20;92.30;;;;;;2092132;28;20051;-89
2022/01/05 04:11:27;;;;;;;3.80;0.80;;;3.20;92.30;;;;;;2063847;28;20062;-90
2022/01/05 04:12:28;;;;;;;6.32;1.30;;;3.20;92.30;;;;;;2079938;28;20822;-90
2022/01/05 04:13:29;;;;;;;6.18;1.30;;;3.20;92.30;;;;;;2079305;28;20029;-90
2022/01/05 04:14:29;;;;;;;8.35;1.08;;;3.20;92.20;;;;;;2078537;28;20045;-89
2022/01/05 04:15:30;;;;;;;4.35;1.27;;;3.20;92.30;;;;;;2099236;28;20517;-90
2022/01/05 04:16:30;;;;;;;5.25;1.20;;;3.20;92.30;;;;;;2098606;28;20426;-90
2022/01/05 04:17:31;;;;;;;4.03;1.27;;;3.20;92.30;;;;;;2096551;28;20418;-91
2022/01/05 04:18:32;;;;;;;6.20;1.00;;;3.20;92.30;;;;;;2088615;28;20080;-90
2022/01/05 04:19:32;;;;;;;5.22;1.00;;;3.30;92.30;;;;;;2079246;28;20479;-90
2022/01/05 04:20:33;;;;;;;2.72;0.80;;;3.30;92.30;;;;;;2095300;28;20028;-91
2022/01/05 04:21:34;;;;;;;4.95;1.10;;;3.30;92.30;;;;;;2104056;28;20013;-89
2022/01/05 04:22:34;;;;;;;6.50;1.30;;;3.20;92.30;;;;;;2111506;28;20040;-90
2022/01/05 04:23:35;;;;;;;6.32;1.52;;;3.20;92.30;;;;;;2115073;28;20096;-89
2022/01/05 04:24:36;;;;;;;6.05;1.30;;;3.20;92.30;;;;;;2102316;28;20096;-89
2022/01/05 04:25:36;;;;;;;4.97;1.23;;;3.20;92.60;;;;;;2098155;28;20097;-89
2022/01/05 04:26:37;;;;;;;3.58;1.00;;;3.20;92.30;;;;;;2104598;28;20162;-85
2022/01/05 04:27:38;;;;;;;5.75;1.58;;;3.20;92.30;;;;;;2104017;28;20043;-90
2022/01/05 04:28:40;;;;;;;3.00;1.00;;;3.20;92.30;;;;;;2104473;28;20115;-90
2022/01/05 04:29:42;;;;;;;4.47;0.98;;;3.20;92.40;;;;;;2099915;28;20429;-91
2022/01/05 04:30:42;;;;;;;4.75;1.00;;;3.20;92.40;;;;;;2088312;28;20041;-91
2022/01/05 04:31:43;;;;;;;7.00;1.38;;;3.20;92.40;;;;;;2078399;28;20138;-90
2022/01/05 04:32:43;;;;;;;4.88;1.00;;;3.20;92.40;;;;;;2088101;28;20419;-90
2022/01/05 04:33:44;;;;;;;4.20;1.00;;;3.20;92.40;;;;;;2079936;28;20069;-90
2022/01/05 04:34:45;;;;;;;4.40;0.90;;;3.20;92.40;;;;;;2080156;28;20033;-91
2022/01/05 04:35:45;;;;;;;6.55;1.08;;;3.20;92.40;;;;;;2067773;28;20506;-91
2022/01/05 04:36:46;;;;;;;3.92;1.00;;;3.20;92.40;;;;;;2087811;28;20128;-90
2022/01/05 04:37:47;;;;;;;4.63;1.17;;;3.20;92.40;;;;;;2089959;28;20187;-91
2022/01/05 04:38:47;;;;;;;7.05;1.13;;;3.20;92.60;;;;;;2079959;28;20559;-91
2022/01/05 04:39:48;;;;;;;4.18;0.98;;;3.20;92.40;;;;;;2083279;28;20040;-90
2022/01/05 04:40:49;;;;;;;6.57;1.20;;;3.20;92.40;;;;;;2082484;28;20075;-91
2022/01/05 04:41:49;;;;;;;6.00;1.15;;;3.20;92.40;;;;;;2077520;28;20056;-91
2022/01/05 04:42:50;;;;;;;4.78;0.95;;;3.20;92.30;;;;;;2085345;28;20049;-91
2022/01/05 04:43:51;;;;;;;4.10;0.93;;;3.20;92.30;;;;;;2079723;28;20060;-90
2022/01/05 04:44:51;;;;;;;5.15;1.00;;;3.20;92.30;;;;;;2065249;28;20026;-91
2022/01/05 04:45:52;;;;;;;6.95;1.40;;;3.30;92.30;;;;;;2079151;28;20482;-91
2022/01/05 04:46:52;;;;;;;4.53;0.93;;;3.30;92.30;;;;;;2102070;28;20074;-91
2022/01/05 04:47:53;;;;;;;3.38;0.90;;;3.30;92.30;;;;;;2095567;28;20060;-91
2022/01/05 04:48:54;;;;;;;3.65;0.77;;;3.30;92.30;;;;;;2080480;28;20072;-91
2022/01/05 04:49:54;;;;;;;4.72;1.10;;;3.30;92.30;;;;;;2080089;28;20037;-91
2022/01/05 04:50:55;;;;;;;3.83;1.10;;;3.30;92.30;;;;;;2078404;28;20117;-91
2022/01/05 04:51:56;;;;;;;3.97;1.13;;;3.40;92.30;;;;;;2086233;28;20056;-91
2022/01/05 04:52:56;;;;;;;3.47;1.00;;;3.40;92.30;;;;;;2079860;28;20034;-90
2022/01/05 04:53:57;;;;;;;5.05;1.08;;;3.40;92.30;;;;;;2084129;28;20734;-91
2022/01/05 04:54:57;;;;;;;5.97;1.30;;;3.40;92.30;;;;;;2103889;28;20089;-91
2022/01/05 04:55:58;;;;;;;3.25;0.98;;;3.40;92.30;;;;;;2087307;28;20392;-91
2022/01/05 04:56:59;;;;;;;5.45;1.00;;;3.50;92.30;;;;;;2087805;28;20499;-91
2022/01/05 04:57:59;;;;;;;5.95;0.90;;;3.50;92.30;;;;;;2086831;28;20045;-90
2022/01/05 04:59:00;;;;;;;6.25;1.20;;;3.50;92.30;;;;;;2084372;28;20561;-91
2022/01/05 05:00:01;;;;;;;4.45;0.90;;;3.50;92.30;;;;;;2093023;28;20135;-90
2022/01/05 05:01:02;;;;;;;4.13;1.10;;;3.50;92.20;;;;;;2097016;28;20041;-90
2022/01/05 05:02:03;;;;;;;4.78;1.10;;;3.50;92.30;;;;;;2097062;28;20128;-92
2022/01/05 05:03:03;;;;;;;5.53;1.65;;;3.50;92.20;;;;;;2099273;28;21498;-90
2022/01/05 05:04:04;;;;;;;4.15;1.25;;;3.50;92.20;;;;;;2093787;28;20063;-90
2022/01/05 05:05:05;;;;;;;3.40;1.00;;;3.60;92.30;;;;;;2086968;28;20087;-89
2022/01/05 05:06:05;;;;;;;3.35;0.80;;;3.50;92.30;;;;;;2080635;28;20030;-90
2022/01/05 05:07:06;;;;;;;2.55;0.80;;;3.50;92.30;;;;;;2079801;28;20431;-91
2022/01/05 05:08:07;;;;;;;3.90;0.98;;;3.50;92.30;;;;;;2088552;28;20096;-90
2022/01/05 05:09:07;;;;;;;4.32;0.90;;;3.50;92.30;;;;;;2086819;28;20070;-91
2022/01/05 05:10:08;;;;;;;4.10;1.00;;;3.50;92.30;;;;;;2093018;28;20045;-91
2022/01/05 05:11:09;;;;;;;4.22;0.82;;;3.50;92.30;;;;;;2093594;28;20040;-91
2022/01/05 05:12:10;;;;;;;4.45;1.15;;;3.50;92.30;;;;;;2087417;28;20045;-91
2022/01/05 05:13:12;;;;;;;3.97;0.85;;;3.50;92.30;;;;;;2075030;28;20045;-90
2022/01/05 05:14:12;;;;;;;5.60;1.10;;;3.50;92.30;;;;;;2080373;28;20041;-91
2022/01/05 05:15:13;;;;;;;4.90;0.80;;;3.60;92.30;;;;;;2082590;28;20030;-90
2022/01/05 05:16:14;;;;;;;4.50;1.00;;;3.50;92.30;;;;;;2086675;28;20087;-90
2022/01/05 05:17:14;;;;;;;4.25;0.90;;;3.50;92.30;;;;;;2095465;28;20044;-91
2022/01/05 05:18:15;;;;;;;4.38;1.00;;;3.50;92.30;;;;;;2091198;28;20040;-91
2022/01/05 05:19:16;;;;;;;4.05;1.08;;;3.50;92.30;;;;;;2085217;28;20037;-91
2022/01/05 05:20:16;;;;;;;5.18;0.95;;;3.50;92.30;;;;;;2088544;28;20017;-91
2022/01/05 05:21:17;;;;;;;7.45;1.23;;;3.50;92.30;;;;;;2084274;28;20041;-91
2022/01/05 05:22:17;;;;;;;6.00;1.40;;;3.50;92.30;;;;;;2082236;28;20550;-91
2022/01/05 05:23:18;;;;;;;6.60;1.17;;;3.50;92.30;;;;;;2093494;28;20051;-91